Time;durP1;ratioP1;P1;durP2;ratioP2;P2;SDS_P1;SDS_P2;PMS_P1;PMS_P2;Temp;Humidity;BMP_temperature;BMP_pressure;BME280_temperature;BME280_humidity;BME280_pressure;Samples;Min_cycle;Max_cycle;Signal;HPM_P1;HPM_P2
2023/11/16 00:01:57;;;;;;;3.35;1.23;;;16.00;68.90;;;;;;5113595;28;20169;-66
2023/11/16 00:04:23;;;;;;;3.42;1.48;;;16.00;69.00;;;;;;5112821;28;20233;-66
2023/11/16 00:06:48;;;;;;;2.58;1.40;;;16.00;68.80;;;;;;5113650;28;20530;-67
2023/11/16 00:09:14;;;;;;;2.65;1.35;;;16.00;68.80;;;;;;5112574;28;20173;-66
2023/11/16 00:11:41;;;;;;;3.58;1.35;;;16.00;68.60;;;;;;5113324;28;20236;-67
2023/11/16 00:14:06;;;;;;;5.22;1.45;;;15.90;68.90;;;;;;5113104;28;20169;-66
2023/11/16 00:16:32;;;;;;;4.18;1.58;;;15.90;68.60;;;;;;5112472;28;20173;-66
2023/11/16 00:18:57;;;;;;;1.95;0.85;;;15.90;69.10;;;;;;5113233;28;20507;-66
2023/11/16 00:21:23;;;;;;;2.15;1.30;;;16.00;68.80;;;;;;5113048;28;20173;-66
2023/11/16 00:23:49;;;;;;;2.90;1.70;;;15.90;69.10;;;;;;5112650;28;20181;-67
2023/11/16 00:26:14;;;;;;;2.53;1.20;;;15.90;69.00;;;;;;5112837;28;20180;-66
2023/11/16 00:28:41;;;;;;;4.45;1.80;;;15.90;69.10;;;;;;5113051;28;20200;-66
2023/11/16 00:31:08;;;;;;;2.67;1.30;;;15.90;68.90;;;;;;5111746;28;20254;-66
2023/11/16 00:33:34;;;;;;;3.42;1.65;;;15.90;69.00;;;;;;5112937;28;20177;-66
2023/11/16 00:36:06;;;;;;;3.92;1.38;;;15.90;68.80;;;;;;5112698;28;20185;-67
2023/11/16 00:38:35;;;;;;;4.40;1.27;;;15.90;69.00;;;;;;5111590;28;20173;-66
2023/11/16 00:41:01;;;;;;;2.95;1.25;;;15.90;68.90;;;;;;5112467;28;20193;-66
2023/11/16 00:43:27;;;;;;;2.50;1.38;;;15.90;69.00;;;;;;5112611;28;20543;-65
2023/11/16 00:45:53;;;;;;;1.90;1.10;;;15.90;69.10;;;;;;5112313;28;20173;-65
2023/11/16 00:48:19;;;;;;;2.40;1.20;;;15.90;69.10;;;;;;5112239;28;20575;-66
2023/11/16 00:50:44;;;;;;;1.98;1.35;;;15.90;69.30;;;;;;5112511;28;20208;-66
2023/11/16 00:53:10;;;;;;;1.75;1.10;;;15.90;69.30;;;;;;5111475;28;20260;-66
2023/11/16 00:55:36;;;;;;;2.83;1.17;;;15.90;69.10;;;;;;5112629;28;20260;-67
2023/11/16 00:58:04;;;;;;;1.90;1.10;;;15.80;69.20;;;;;;5112292;28;20180;-66
2023/11/16 01:00:31;;;;;;;3.83;1.42;;;15.90;69.30;;;;;;5111992;28;20181;-66
2023/11/16 01:02:58;;;;;;;4.05;1.40;;;15.90;69.30;;;;;;5112379;28;20534;-66
2023/11/16 01:05:24;;;;;;;3.05;1.40;;;15.90;69.30;;;;;;5111861;28;20173;-66
2023/11/16 01:07:50;;;;;;;3.72;1.20;;;15.80;69.20;;;;;;5112674;28;20180;-67
2023/11/16 01:10:23;;;;;;;2.03;1.00;;;15.80;69.20;;;;;;5112180;28;20197;-66
2023/11/16 01:12:51;;;;;;;1.45;1.10;;;15.80;69.20;;;;;;5111689;28;20189;-66
2023/11/16 01:15:18;;;;;;;2.25;1.25;;;15.90;69.30;;;;;;5112367;28;20264;-66
2023/11/16 01:17:45;;;;;;;2.17;1.23;;;15.80;69.20;;;;;;5112443;28;20196;-65
2023/11/16 01:20:18;;;;;;;2.10;1.38;;;15.80;69.20;;;;;;5111514;28;20216;-66
2023/11/16 01:22:50;;;;;;;4.10;1.27;;;15.80;69.20;;;;;;5095376;28;20173;-66
2023/11/16 01:25:17;;;;;;;2.50;1.50;;;15.80;69.20;;;;;;5111970;28;20180;-66
2023/11/16 01:27:50;;;;;;;2.33;1.35;;;15.80;69.20;;;;;;5111531;28;20619;-66
2023/11/16 01:30:16;;;;;;;3.53;1.55;;;15.80;69.20;;;;;;5112104;28;20234;-65
2023/11/16 01:32:42;;;;;;;2.53;1.30;;;15.80;69.30;;;;;;5112356;28;20599;-65
2023/11/16 01:35:08;;;;;;;4.43;1.25;;;15.80;69.40;;;;;;5111326;28;20169;-66
2023/11/16 01:37:34;;;;;;;4.85;1.35;;;15.80;69.40;;;;;;5112018;28;20184;-65
2023/11/16 01:40:00;;;;;;;2.95;1.33;;;15.80;69.40;;;;;;5112074;28;20200;-66
2023/11/16 01:42:25;;;;;;;1.67;1.10;;;15.80;69.40;;;;;;5111252;28;20636;-66
2023/11/16 01:44:51;;;;;;;2.05;1.00;;;15.80;69.40;;;;;;5112177;28;20180;-65
2023/11/16 01:47:17;;;;;;;2.42;1.25;;;15.80;69.50;;;;;;5111980;28;20345;-66
2023/11/16 01:49:43;;;;;;;1.33;0.80;;;15.70;69.40;;;;;;5114832;28;20225;-66
2023/11/16 01:52:09;;;;;;;3.05;1.55;;;15.80;69.50;;;;;;5097620;28;20212;-66
2023/11/16 01:54:35;;;;;;;2.08;1.05;;;15.80;69.60;;;;;;5097952;28;20174;-67
2023/11/16 01:57:00;;;;;;;2.28;1.33;;;15.70;69.50;;;;;;5097372;28;20306;-66
2023/11/16 01:59:27;;;;;;;2.22;1.33;;;15.80;69.60;;;;;;5097609;28;20639;-66
2023/11/16 02:01:52;;;;;;;1.23;1.13;;;15.70;69.50;;;;;;5097178;28;20176;-66
2023/11/16 02:04:19;;;;;;;3.10;1.15;;;15.70;69.50;;;;;;5097394;28;20172;-66
2023/11/16 02:06:44;;;;;;;1.23;1.10;;;15.70;69.50;;;;;;5115787;28;20176;-67
2023/11/16 02:09:10;;;;;;;1.83;0.98;;;15.70;69.50;;;;;;5096620;28;20646;-67
2023/11/16 02:11:35;;;;;;;1.48;1.20;;;15.70;69.50;;;;;;5115639;28;20211;-66
2023/11/16 02:14:01;;;;;;;1.83;1.10;;;15.70;69.40;;;;;;5115456;28;20165;-65
2023/11/16 02:16:28;;;;;;;1.45;0.95;;;15.70;69.40;;;;;;5115135;28;20173;-65
2023/11/16 02:18:54;;;;;;;3.38;1.30;;;15.70;69.40;;;;;;5115655;28;20252;-66
2023/11/16 02:21:20;;;;;;;2.15;1.40;;;15.70;69.50;;;;;;5115031;28;20673;-65
2023/11/16 02:23:47;;;;;;;3.47;1.75;;;15.70;69.50;;;;;;5114716;28;20177;-66
2023/11/16 02:26:13;;;;;;;1.50;1.08;;;15.70;69.50;;;;;;5097391;28;20177;-66
2023/11/16 02:28:38;;;;;;;1.92;1.05;;;15.70;69.50;;;;;;5115477;28;20161;-65
2023/11/16 02:31:04;;;;;;;3.83;1.25;;;15.70;69.50;;;;;;5113772;28;20205;-66
2023/11/16 02:33:30;;;;;;;1.92;1.10;;;15.70;69.60;;;;;;5114748;28;20215;-65
2023/11/16 02:35:57;;;;;;;2.85;1.20;;;15.70;69.50;;;;;;5115158;28;20177;-66
2023/11/16 02:38:22;;;;;;;2.08;1.13;;;15.70;69.40;;;;;;5114428;28;20185;-66
2023/11/16 02:40:51;;;;;;;3.20;1.17;;;15.70;69.60;;;;;;5115178;28;20169;-65
2023/11/16 02:43:21;;;;;;;2.08;1.02;;;15.60;69.50;;;;;;5114782;28;20180;-65
2023/11/16 02:45:48;;;;;;;3.25;1.33;;;15.70;69.50;;;;;;5114334;28;20177;-65
2023/11/16 02:48:15;;;;;;;1.52;1.23;;;15.70;69.60;;;;;;5114586;28;20258;-65
2023/11/16 02:50:41;;;;;;;3.50;1.65;;;15.70;69.60;;;;;;5114898;28;20212;-66
2023/11/16 02:53:06;;;;;;;2.55;1.00;;;15.60;69.50;;;;;;5114222;28;20169;-66
2023/11/16 02:55:34;;;;;;;2.17;1.15;;;15.70;69.60;;;;;;5114997;28;20169;-67
2023/11/16 02:58:00;;;;;;;2.40;1.35;;;15.60;69.50;;;;;;5113955;28;20516;-66
2023/11/16 03:00:25;;;;;;;1.55;1.00;;;15.60;69.50;;;;;;5114119;28;20702;-66
2023/11/16 03:02:51;;;;;;;2.00;1.02;;;15.60;69.60;;;;;;5114749;28;20765;-66
2023/11/16 03:05:19;;;;;;;3.47;1.30;;;15.60;69.60;;;;;;5113483;28;20169;-67
2023/11/16 03:07:44;;;;;;;2.42;1.23;;;15.60;69.70;;;;;;5114740;28;20241;-67
2023/11/16 03:10:13;;;;;;;1.38;1.05;;;15.60;69.70;;;;;;5114141;28;20818;-66
2023/11/16 03:12:39;;;;;;;2.45;1.20;;;15.60;69.60;;;;;;5114003;28;20262;-66
2023/11/16 03:15:06;;;;;;;2.67;1.45;;;15.60;69.70;;;;;;5114155;28;20617;-66
2023/11/16 03:17:36;;;;;;;2.80;1.27;;;15.60;69.70;;;;;;5114410;28;20213;-66
2023/11/16 03:20:02;;;;;;;1.83;1.00;;;15.60;69.80;;;;;;5113628;28;20176;-66
2023/11/16 03:22:29;;;;;;;1.75;1.10;;;15.60;69.70;;;;;;5114426;28;20597;-66
2023/11/16 03:24:54;;;;;;;2.30;1.10;;;15.60;69.70;;;;;;5114435;28;20599;-66
2023/11/16 03:27:21;;;;;;;2.20;1.35;;;15.60;69.80;;;;;;5113363;28;20914;-66
2023/11/16 03:29:47;;;;;;;2.53;1.00;;;15.60;69.80;;;;;;5114238;28;20173;-65
2023/11/16 03:32:13;;;;;;;2.00;0.93;;;15.60;69.90;;;;;;5113674;28;20638;-66
2023/11/16 03:34:39;;;;;;;2.67;1.20;;;15.60;69.90;;;;;;5113207;28;20177;-66
2023/11/16 03:37:04;;;;;;;1.98;1.30;;;15.60;69.70;;;;;;5113928;28;20181;-66
2023/11/16 03:39:30;;;;;;;1.63;1.25;;;15.60;69.70;;;;;;5114102;28;20966;-66
2023/11/16 03:41:59;;;;;;;4.88;1.10;;;15.60;69.70;;;;;;5113204;28;20686;-66
2023/11/16 03:44:29;;;;;;;2.45;1.30;;;15.60;69.80;;;;;;5113911;28;20184;-65
2023/11/16 03:46:54;;;;;;;2.97;1.20;;;15.60;69.90;;;;;;5113338;28;20181;-65
2023/11/16 03:49:20;;;;;;;1.30;0.82;;;15.60;69.90;;;;;;5111481;28;20228;-66
2023/11/16 03:51:46;;;;;;;1.60;1.10;;;15.60;69.80;;;;;;5113421;28;20244;-67
2023/11/16 03:54:12;;;;;;;2.20;1.17;;;15.60;69.90;;;;;;5112550;28;20180;-66
2023/11/16 03:56:37;;;;;;;2.83;1.00;;;15.60;69.80;;;;;;5113189;28;20183;-66
2023/11/16 03:59:03;;;;;;;1.60;1.23;;;15.60;69.90;;;;;;5113299;28;20692;-66
2023/11/16 04:01:35;;;;;;;1.95;1.05;;;15.60;69.90;;;;;;5112794;28;20180;-66
2023/11/16 04:04:01;;;;;;;2.00;1.20;;;15.50;69.80;;;;;;5113409;28;20195;-66
2023/11/16 04:06:26;;;;;;;1.83;1.10;;;15.50;69.90;;;;;;5113460;28;20725;-66
2023/11/16 04:08:52;;;;;;;3.20;1.25;;;15.50;69.90;;;;;;5112910;28;20181;-66
2023/11/16 04:11:18;;;;;;;1.58;1.00;;;15.50;69.90;;;;;;5113057;28;20743;-66
2023/11/16 04:13:46;;;;;;;1.30;0.80;;;15.50;69.90;;;;;;5113494;28;20192;-66
2023/11/16 04:16:21;;;;;;;1.27;1.15;;;15.50;69.90;;;;;;5112229;28;20176;-66
2023/11/16 04:18:49;;;;;;;1.83;1.10;;;15.50;69.90;;;;;;5113462;28;20173;-66
2023/11/16 04:21:18;;;;;;;1.70;0.85;;;15.50;69.90;;;;;;5112878;28;20173;-66
2023/11/16 04:23:46;;;;;;;2.55;1.00;;;15.50;69.80;;;;;;5112578;28;20173;-66
2023/11/16 04:26:11;;;;;;;1.10;1.02;;;15.50;69.90;;;;;;5112840;28;20173;-66
2023/11/16 04:28:38;;;;;;;1.13;0.80;;;15.50;70.00;;;;;;5112948;28;20169;-66
2023/11/16 04:31:04;;;;;;;3.22;1.40;;;15.50;69.90;;;;;;5111835;28;20220;-65
2023/11/16 04:33:29;;;;;;;1.65;1.15;;;15.50;69.90;;;;;;5113114;28;20189;-65
2023/11/16 04:35:56;;;;;;;1.05;0.90;;;15.50;69.90;;;;;;5113190;28;20268;-66
2023/11/16 04:38:22;;;;;;;2.17;1.20;;;15.50;69.80;;;;;;5112039;28;20293;-65
2023/11/16 04:40:47;;;;;;;1.00;0.90;;;15.50;69.90;;;;;;5112855;28;20635;-65
2023/11/16 04:43:15;;;;;;;0.95;0.80;;;15.50;69.90;;;;;;5112485;28;20261;-65
2023/11/16 04:45:42;;;;;;;0.90;0.70;;;15.50;69.90;;;;;;5112333;28;20325;-64
2023/11/16 04:48:07;;;;;;;2.28;1.23;;;15.50;69.80;;;;;;5112455;28;20239;-64
2023/11/16 04:50:33;;;;;;;1.30;1.20;;;15.50;69.90;;;;;;5111444;28;20593;-65
2023/11/16 04:52:59;;;;;;;2.03;1.20;;;15.50;69.80;;;;;;5112417;28;20221;-66
2023/11/16 04:55:25;;;;;;;2.10;1.05;;;15.40;69.80;;;;;;5112600;28;20245;-68
2023/11/16 04:57:51;;;;;;;1.42;1.00;;;15.50;69.90;;;;;;5112100;28;20169;-66
2023/11/16 05:00:18;;;;;;;1.85;1.20;;;15.50;69.80;;;;;;5112381;28;20483;-66
2023/11/16 05:02:44;;;;;;;3.70;1.33;;;15.50;70.00;;;;;;5112468;28;20601;-65
2023/11/16 05:05:10;;;;;;;1.65;1.08;;;15.50;70.00;;;;;;5111593;28;20580;-65
2023/11/16 05:07:35;;;;;;;1.25;1.10;;;15.50;70.00;;;;;;5112608;28;20691;-66
2023/11/16 05:10:01;;;;;;;1.90;1.05;;;15.40;69.90;;;;;;5119943;28;20341;-66
2023/11/16 05:12:27;;;;;;;1.63;1.00;;;15.50;70.00;;;;;;5132353;28;20176;-65
2023/11/16 05:14:53;;;;;;;2.03;1.40;;;15.40;70.00;;;;;;5133154;28;20181;-65
2023/11/16 05:17:19;;;;;;;1.30;1.20;;;15.40;70.00;;;;;;5132858;28;20510;-65
2023/11/16 05:19:45;;;;;;;2.03;1.40;;;15.40;70.00;;;;;;5132315;28;20172;-65
2023/11/16 05:22:10;;;;;;;2.25;1.55;;;15.40;69.80;;;;;;5132569;28;20172;-65
2023/11/16 05:24:36;;;;;;;2.22;1.30;;;15.40;69.80;;;;;;5136348;27;20264;-65
2023/11/16 05:27:02;;;;;;;1.15;1.05;;;15.40;69.90;;;;;;5136036;27;20175;-65
2023/11/16 05:29:31;;;;;;;3.33;1.48;;;15.40;70.00;;;;;;5137436;27;20176;-64
2023/11/16 05:31:57;;;;;;;1.30;1.20;;;15.40;70.00;;;;;;5137081;27;20208;-64
2023/11/16 05:34:23;;;;;;;2.53;1.30;;;15.40;70.00;;;;;;5136232;27;20175;-64
2023/11/16 05:36:52;;;;;;;2.30;1.35;;;15.40;70.00;;;;;;5137055;27;20176;-65
2023/11/16 05:39:19;;;;;;;1.95;1.25;;;15.40;70.00;;;;;;5136388;27;20180;-65
2023/11/16 05:41:45;;;;;;;1.65;1.27;;;15.40;70.00;;;;;;5135877;27;20180;-64
2023/11/16 05:44:12;;;;;;;1.67;1.10;;;15.40;70.00;;;;;;5136581;27;20272;-64
2023/11/16 05:46:38;;;;;;;2.55;1.25;;;15.40;70.00;;;;;;5136865;27;20176;-64
2023/11/16 05:49:06;;;;;;;2.38;1.35;;;15.30;70.10;;;;;;5135575;27;20694;-64
2023/11/16 05:51:33;;;;;;;3.45;1.33;;;15.40;70.10;;;;;;5136653;27;20208;-65
2023/11/16 05:53:58;;;;;;;1.65;1.30;;;15.40;70.10;;;;;;5135508;27;20270;-65
2023/11/16 05:56:24;;;;;;;2.33;1.15;;;15.40;70.20;;;;;;5136793;27;20196;-65
2023/11/16 05:58:50;;;;;;;1.63;1.02;;;15.40;70.20;;;;;;5136736;27;20160;-65
2023/11/16 06:01:16;;;;;;;1.70;1.30;;;15.40;70.20;;;;;;5135573;27;20168;-64
2023/11/16 06:03:41;;;;;;;3.00;1.73;;;15.40;70.20;;;;;;5136400;27;20551;-64
2023/11/16 06:06:08;;;;;;;1.38;1.13;;;15.40;70.20;;;;;;5136131;27;20180;-65
2023/11/16 06:08:34;;;;;;;1.48;1.30;;;15.40;70.20;;;;;;5135476;27;20183;-66
2023/11/16 06:10:59;;;;;;;1.98;1.15;;;15.40;70.20;;;;;;5136054;27;20220;-66
2023/11/16 06:13:26;;;;;;;1.63;1.27;;;15.40;70.20;;;;;;5135592;27;20180;-64
2023/11/16 06:15:52;;;;;;;1.73;0.90;;;15.30;70.20;;;;;;5135423;27;20579;-66
2023/11/16 06:18:18;;;;;;;2.25;1.50;;;15.40;70.30;;;;;;5135877;27;20178;-65
2023/11/16 06:20:44;;;;;;;3.42;1.52;;;15.30;70.20;;;;;;5136045;27;20176;-65
2023/11/16 06:23:10;;;;;;;1.77;1.20;;;15.40;70.30;;;;;;5135017;27;20172;-65
2023/11/16 06:25:35;;;;;;;2.72;1.40;;;15.30;70.20;;;;;;5136210;27;20172;-65
2023/11/16 06:28:01;;;;;;;1.83;1.60;;;15.40;70.30;;;;;;5135770;27;20164;-65
2023/11/16 06:30:26;;;;;;;1.85;1.20;;;15.40;70.20;;;;;;5135224;27;20219;-65
2023/11/16 06:32:52;;;;;;;1.58;1.13;;;15.30;70.20;;;;;;5135810;27;20181;-64
2023/11/16 06:35:17;;;;;;;2.85;1.77;;;15.40;70.30;;;;;;5134282;27;20543;-65
2023/11/16 06:37:43;;;;;;;2.22;1.30;;;15.30;70.10;;;;;;5135064;27;20635;-65
2023/11/16 06:40:09;;;;;;;1.88;1.20;;;15.30;70.20;;;;;;5135653;27;20305;-65
2023/11/16 06:42:36;;;;;;;2.80;1.50;;;15.30;70.20;;;;;;5135937;27;20541;-65
2023/11/16 06:45:03;;;;;;;2.38;1.60;;;15.30;70.10;;;;;;5134593;27;20184;-64
2023/11/16 06:47:29;;;;;;;1.48;1.33;;;15.30;70.10;;;;;;5135557;27;20180;-64
2023/11/16 06:49:55;;;;;;;1.80;1.27;;;15.30;70.20;;;;;;5135387;27;20253;-65
2023/11/16 06:52:20;;;;;;;3.38;1.48;;;15.30;70.10;;;;;;5134375;27;20211;-65
2023/11/16 06:54:46;;;;;;;1.33;1.15;;;15.30;70.20;;;;;;5135468;27;20647;-66
2023/11/16 06:57:13;;;;;;;1.40;1.15;;;15.30;70.20;;;;;;5134538;27;20164;-66
2023/11/16 06:59:42;;;;;;;1.40;1.25;;;15.30;70.30;;;;;;5135480;27;20172;-66
2023/11/16 07:02:07;;;;;;;2.10;1.42;;;15.30;70.30;;;;;;5134970;27;20165;-65
2023/11/16 07:04:35;;;;;;;1.30;1.17;;;15.30;70.10;;;;;;5134629;27;20191;-65
2023/11/16 07:07:01;;;;;;;2.17;1.50;;;15.30;70.30;;;;;;5134866;27;20184;-66
2023/11/16 07:09:27;;;;;;;3.97;1.67;;;15.30;70.30;;;;;;5135331;27;20176;-66
2023/11/16 07:11:52;;;;;;;1.90;1.20;;;15.40;70.20;;;;;;5134286;27;20212;-66
2023/11/16 07:14:19;;;;;;;1.10;0.85;;;15.40;70.30;;;;;;5134718;27;20260;-66
2023/11/16 07:16:45;;;;;;;1.40;1.00;;;15.60;70.20;;;;;;5135017;27;20259;-65
2023/11/16 07:19:12;;;;;;;1.50;1.13;;;15.70;70.00;;;;;;5133947;27;20232;-65
2023/11/16 07:21:38;;;;;;;1.30;1.20;;;15.80;69.90;;;;;;5134944;27;20181;-65
2023/11/16 07:24:07;;;;;;;1.67;1.10;;;16.00;69.70;;;;;;5134712;27;20168;-66
2023/11/16 07:26:33;;;;;;;1.25;1.10;;;16.20;69.30;;;;;;5134332;27;20185;-65
2023/11/16 07:28:59;;;;;;;1.45;0.88;;;16.40;68.70;;;;;;5134468;27;20176;-65
2023/11/16 07:31:27;;;;;;;1.80;1.00;;;16.60;68.50;;;;;;5134749;27;20211;-65
2023/11/16 07:33:54;;;;;;;1.17;0.90;;;16.80;67.90;;;;;;5133978;27;20168;-65
2023/11/16 07:36:27;;;;;;;1.65;1.42;;;17.10;66.80;;;;;;5134529;27;20199;-65
2023/11/16 07:38:53;;;;;;;1.50;0.90;;;17.40;65.90;;;;;;5134855;27;20213;-65
2023/11/16 07:41:20;;;;;;;2.05;0.90;;;17.60;65.40;;;;;;5133671;27;20183;-65
2023/11/16 07:43:46;;;;;;;1.90;1.08;;;17.60;65.10;;;;;;5134606;27;20168;-65
2023/11/16 07:46:12;;;;;;;2.35;0.90;;;17.70;64.80;;;;;;5133831;27;20187;-64
2023/11/16 07:48:39;;;;;;;2.10;1.23;;;17.70;65.70;;;;;;5133458;27;20262;-65
2023/11/16 07:51:07;;;;;;;1.55;0.85;;;17.80;64.80;;;;;;5134236;27;20239;-66
2023/11/16 07:53:34;;;;;;;2.65;1.23;;;17.80;64.70;;;;;;5133755;27;20172;-66
2023/11/16 07:56:05;;;;;;;1.00;0.90;;;17.80;64.60;;;;;;5134098;27;20184;-66
2023/11/16 07:58:33;;;;;;;0.98;0.88;;;17.80;64.70;;;;;;5133760;27;20182;-66
2023/11/16 08:01:04;;;;;;;1.52;0.93;;;17.80;64.80;;;;;;5133123;27;20176;-66
2023/11/16 08:03:42;;;;;;;1.17;0.90;;;17.80;64.80;;;;;;5134530;27;20176;-66
2023/11/16 08:06:12;;;;;;;1.25;0.90;;;17.80;64.80;;;;;;5133955;27;20179;-67
2023/11/16 08:08:41;;;;;;;1.98;1.00;;;17.80;64.90;;;;;;5133377;27;20184;-67
2023/11/16 08:11:08;;;;;;;1.75;0.93;;;17.80;64.70;;;;;;5133686;27;20249;-66
2023/11/16 08:13:35;;;;;;;1.20;0.90;;;17.80;64.80;;;;;;5133886;27;20179;-65
2023/11/16 08:16:04;;;;;;;0.80;0.80;;;17.80;64.90;;;;;;5132906;27;20176;-66
2023/11/16 08:18:29;;;;;;;1.10;1.00;;;17.70;65.00;;;;;;5115818;27;20551;-65
2023/11/16 08:20:55;;;;;;;1.00;0.80;;;17.60;65.10;;;;;;5133941;27;20168;-65
2023/11/16 08:23:21;;;;;;;0.88;0.70;;;17.50;65.50;;;;;;5132704;27;20179;-66
2023/11/16 08:25:50;;;;;;;1.25;0.90;;;17.40;65.80;;;;;;5133608;27;20178;-65
2023/11/16 08:28:19;;;;;;;1.23;1.05;;;17.40;66.00;;;;;;5133169;27;20169;-66
2023/11/16 08:30:45;;;;;;;2.00;0.90;;;17.40;66.00;;;;;;5132696;27;20581;-66
2023/11/16 08:33:11;;;;;;;1.27;0.77;;;17.40;66.00;;;;;;5133434;27;20173;-65
2023/11/16 08:35:37;;;;;;;1.70;0.70;;;17.30;66.10;;;;;;5133017;27;20176;-66
2023/11/16 08:38:05;;;;;;;1.10;1.00;;;17.30;66.40;;;;;;5133160;27;20168;-66
2023/11/16 08:40:31;;;;;;;2.20;1.00;;;17.30;66.30;;;;;;5132852;27;20272;-66
2023/11/16 08:42:57;;;;;;;1.85;0.95;;;17.20;66.40;;;;;;5132806;27;20287;-65
2023/11/16 08:45:25;;;;;;;1.77;1.23;;;17.20;66.60;;;;;;5133060;27;20668;-65
2023/11/16 08:47:59;;;;;;;1.15;1.00;;;17.20;66.70;;;;;;5132963;27;20207;-64
2023/11/16 08:50:25;;;;;;;2.08;1.20;;;17.20;66.70;;;;;;5132308;27;20622;-65
2023/11/16 08:52:51;;;;;;;4.90;1.10;;;17.20;66.90;;;;;;5133251;27;20184;-66
2023/11/16 08:55:20;;;;;;;2.55;1.25;;;17.20;66.90;;;;;;5132777;27;20264;-66
2023/11/16 08:57:47;;;;;;;3.05;1.52;;;17.20;67.00;;;;;;5131487;27;20654;-65
2023/11/16 09:00:29;;;;;;;1.55;1.33;;;17.00;67.40;;;;;;5132947;27;20176;-66
2023/11/16 09:02:59;;;;;;;3.35;1.30;;;17.10;67.80;;;;;;5133181;27;20631;-65
2023/11/16 09:05:25;;;;;;;1.25;1.10;;;17.10;67.60;;;;;;5132423;27;20181;-66
2023/11/16 09:07:51;;;;;;;1.10;0.93;;;17.00;67.60;;;;;;5133261;27;20668;-66
2023/11/16 09:10:19;;;;;;;1.13;1.00;;;17.00;67.70;;;;;;5132768;27;20165;-66
2023/11/16 09:12:49;;;;;;;3.63;1.30;;;17.00;67.90;;;;;;5132339;28;20634;-65
2023/11/16 09:15:16;;;;;;;1.20;1.08;;;17.00;67.90;;;;;;5132853;28;20180;-65
2023/11/16 09:17:44;;;;;;;2.33;1.30;;;17.00;67.80;;;;;;5132590;28;20661;-65
2023/11/16 09:20:10;;;;;;;2.05;0.90;;;17.00;67.70;;;;;;5132532;28;20180;-65
2023/11/16 09:22:41;;;;;;;3.28;1.20;;;17.00;67.90;;;;;;5132924;28;20539;-65
2023/11/16 09:25:07;;;;;;;2.65;1.23;;;16.90;68.10;;;;;;5132067;28;20192;-65
2023/11/16 09:27:38;;;;;;;1.33;1.20;;;16.90;68.10;;;;;;5133028;28;20183;-65
2023/11/16 09:30:04;;;;;;;1.85;1.23;;;16.90;68.10;;;;;;5132588;28;20269;-65
2023/11/16 09:32:31;;;;;;;1.33;1.10;;;16.80;68.20;;;;;;5132068;28;20234;-65
2023/11/16 09:34:58;;;;;;;2.75;1.40;;;16.90;68.20;;;;;;5132797;28;20508;-65
2023/11/16 09:37:27;;;;;;;2.92;1.40;;;16.90;68.20;;;;;;5133020;28;20225;-65
2023/11/16 09:39:54;;;;;;;2.65;1.30;;;16.90;68.20;;;;;;5132266;28;20176;-66
2023/11/16 09:42:20;;;;;;;3.40;1.33;;;16.80;68.20;;;;;;5132481;28;20176;-64
2023/11/16 09:44:51;;;;;;;1.67;1.45;;;16.80;68.30;;;;;;5097463;28;20161;-65
2023/11/16 09:47:25;;;;;;;2.88;1.50;;;16.80;69.10;;;;;;5096932;28;20215;-65
2023/11/16 09:49:55;;;;;;;2.60;1.40;;;16.70;68.50;;;;;;5115572;28;20223;-65
2023/11/16 09:52:32;;;;;;;2.53;1.40;;;16.70;68.50;;;;;;5132521;28;20216;-65
2023/11/16 09:54:59;;;;;;;1.58;1.15;;;16.70;68.70;;;;;;5131839;28;20221;-66
2023/11/16 09:57:27;;;;;;;2.05;1.05;;;16.70;68.70;;;;;;5132687;28;20180;-66
2023/11/16 09:59:56;;;;;;;2.10;1.15;;;16.70;68.60;;;;;;5114386;28;20529;-65
2023/11/16 10:02:25;;;;;;;1.25;1.00;;;16.80;68.60;;;;;;5132404;28;20198;-65
2023/11/16 10:04:53;;;;;;;1.55;1.23;;;16.70;68.60;;;;;;5114679;28;20537;-65
2023/11/16 10:07:25;;;;;;;2.22;1.23;;;16.70;68.60;;;;;;5131744;28;20589;-66
2023/11/16 10:09:53;;;;;;;1.90;0.90;;;16.70;68.60;;;;;;5117123;27;20581;-66
2023/11/16 10:12:18;;;;;;;1.30;1.20;;;16.60;68.70;;;;;;5135893;27;20273;-66
2023/11/16 10:14:51;;;;;;;1.75;1.00;;;16.60;68.70;;;;;;5135750;27;20168;-65
2023/11/16 10:17:21;;;;;;;2.63;1.20;;;16.60;68.90;;;;;;5136135;27;20293;-65
2023/11/16 10:19:46;;;;;;;1.52;1.20;;;16.60;69.10;;;;;;5136438;27;20539;-65
2023/11/16 10:22:12;;;;;;;2.15;1.10;;;16.60;69.00;;;;;;5135099;27;20172;-65
2023/11/16 10:24:38;;;;;;;1.40;1.30;;;16.60;69.00;;;;;;5136077;27;20173;-65
2023/11/16 10:27:04;;;;;;;2.67;1.50;;;16.60;69.00;;;;;;5135718;27;20638;-65
2023/11/16 10:29:29;;;;;;;1.45;1.13;;;16.60;69.00;;;;;;5117159;27;20175;-65
2023/11/16 10:31:56;;;;;;;2.65;1.42;;;16.60;68.90;;;;;;5136071;27;20220;-65
2023/11/16 10:34:24;;;;;;;2.08;1.10;;;16.60;69.00;;;;;;5135520;27;20647;-65
2023/11/16 10:36:51;;;;;;;1.98;1.13;;;16.60;69.10;;;;;;5135284;27;20176;-66
2023/11/16 10:39:16;;;;;;;1.88;1.20;;;16.60;69.10;;;;;;5135560;27;20172;-65
2023/11/16 10:41:42;;;;;;;1.70;1.20;;;16.50;69.00;;;;;;5117576;27;20198;-65
2023/11/16 10:44:10;;;;;;;1.30;1.20;;;16.50;69.20;;;;;;5099629;27;20213;-64
2023/11/16 10:46:36;;;;;;;1.13;1.10;;;16.50;69.20;;;;;;5117797;27;20225;-64
2023/11/16 10:49:02;;;;;;;2.42;1.55;;;16.50;69.30;;;;;;5116909;27;20248;-65
2023/11/16 10:51:27;;;;;;;1.40;1.27;;;16.50;69.30;;;;;;5134918;27;20230;-65
2023/11/16 10:53:55;;;;;;;1.50;1.25;;;16.50;69.30;;;;;;5100270;27;20533;-65
2023/11/16 10:56:21;;;;;;;1.27;1.13;;;16.50;69.20;;;;;;5134686;27;20281;-66
2023/11/16 10:58:47;;;;;;;1.77;1.20;;;16.50;69.20;;;;;;5117195;27;20646;-65
2023/11/16 11:01:17;;;;;;;1.38;1.10;;;16.50;69.20;;;;;;5099943;27;20691;-66
2023/11/16 11:03:44;;;;;;;2.17;1.17;;;16.50;69.20;;;;;;5134732;27;20179;-66
2023/11/16 11:06:19;;;;;;;1.60;1.17;;;16.50;69.30;;;;;;5134993;27;20217;-66
2023/11/16 11:08:44;;;;;;;1.48;1.08;;;16.50;69.30;;;;;;5135579;27;20217;-66
2023/11/16 11:11:12;;;;;;;1.48;1.10;;;16.50;69.30;;;;;;5134315;27;20220;-66
2023/11/16 11:13:39;;;;;;;2.28;1.27;;;16.40;69.40;;;;;;5135380;27;20192;-65
2023/11/16 11:16:06;;;;;;;1.52;1.30;;;16.40;69.30;;;;;;5135090;27;20200;-65
2023/11/16 11:18:31;;;;;;;1.58;1.48;;;16.40;69.40;;;;;;5134452;27;20259;-64
2023/11/16 11:21:09;;;;;;;1.08;1.00;;;16.40;69.40;;;;;;5134321;27;20260;-65
2023/11/16 11:23:37;;;;;;;2.42;1.60;;;16.40;69.50;;;;;;5134917;27;20517;-65
2023/11/16 11:26:03;;;;;;;2.40;1.20;;;16.40;69.40;;;;;;5134055;27;20177;-65
2023/11/16 11:28:29;;;;;;;1.50;1.10;;;16.40;69.40;;;;;;5135068;27;20535;-65
2023/11/16 11:30:57;;;;;;;1.30;1.20;;;16.40;69.50;;;;;;5134688;27;20245;-65
2023/11/16 11:33:45;;;;;;;2.20;1.23;;;16.40;69.50;;;;;;5133857;27;20173;-65
2023/11/16 11:36:16;;;;;;;1.00;1.00;;;16.40;69.60;;;;;;5134594;27;20255;-65
2023/11/16 11:38:48;;;;;;;1.42;1.33;;;16.30;69.60;;;;;;5134184;27;20469;-65
2023/11/16 11:41:14;;;;;;;1.38;1.27;;;16.30;69.50;;;;;;5134402;27;20183;-65
2023/11/16 11:43:40;;;;;;;1.50;1.40;;;16.30;69.50;;;;;;5134588;27;20607;-64
2023/11/16 11:46:10;;;;;;;1.33;1.23;;;16.30;69.50;;;;;;5133446;27;20172;-64
2023/11/16 11:48:36;;;;;;;2.92;1.40;;;16.30;69.50;;;;;;5134442;27;20269;-64
2023/11/16 11:51:04;;;;;;;1.20;1.00;;;16.40;69.60;;;;;;5134240;27;20209;-65
2023/11/16 11:53:32;;;;;;;2.13;1.42;;;16.40;69.50;;;;;;5133766;27;20263;-65
2023/11/16 11:55:59;;;;;;;2.60;1.20;;;16.40;69.50;;;;;;5134153;27;20219;-65
2023/11/16 11:58:25;;;;;;;1.38;1.27;;;16.40;69.50;;;;;;5134198;27;20173;-65
2023/11/16 12:00:52;;;;;;;1.20;1.10;;;16.30;69.50;;;;;;5133825;27;20184;-65
2023/11/16 12:03:18;;;;;;;1.30;1.20;;;16.40;69.50;;;;;;5133945;27;21231;-65
2023/11/16 12:05:45;;;;;;;1.10;1.00;;;16.30;69.40;;;;;;5134207;27;20169;-66
2023/11/16 12:08:11;;;;;;;3.72;1.30;;;16.30;69.60;;;;;;5133176;27;20180;-66
2023/11/16 12:10:37;;;;;;;1.30;1.20;;;16.30;69.40;;;;;;5133701;27;20223;-66
2023/11/16 12:13:04;;;;;;;1.40;1.30;;;16.30;69.60;;;;;;5115270;27;20699;-66
2023/11/16 12:15:30;;;;;;;2.33;1.45;;;16.30;69.60;;;;;;5114464;27;20183;-66
2023/11/16 12:17:58;;;;;;;2.45;1.33;;;16.30;69.60;;;;;;5133148;27;20176;-65
2023/11/16 12:20:24;;;;;;;1.45;1.08;;;16.30;69.60;;;;;;5133858;27;20179;-66
2023/11/16 12:22:52;;;;;;;1.50;1.40;;;16.30;69.60;;;;;;5114144;27;20180;-66
2023/11/16 12:25:20;;;;;;;2.60;1.27;;;16.30;69.70;;;;;;5133432;27;20307;-67
2023/11/16 12:27:46;;;;;;;1.25;1.15;;;16.30;69.60;;;;;;5132789;27;20176;-66
2023/11/16 12:30:17;;;;;;;3.03;1.38;;;16.40;69.60;;;;;;5133173;27;20176;-68
2023/11/16 12:32:43;;;;;;;2.17;1.00;;;16.50;69.60;;;;;;5132492;27;20199;-67
2023/11/16 12:35:11;;;;;;;3.65;1.38;;;16.60;69.40;;;;;;5114443;27;20177;-68
2023/11/16 12:37:42;;;;;;;1.52;1.25;;;16.80;69.20;;;;;;5133594;27;20180;-68
2023/11/16 12:40:17;;;;;;;2.38;1.30;;;16.90;68.80;;;;;;5133044;27;20183;-68
2023/11/16 12:42:47;;;;;;;1.55;1.00;;;17.10;68.50;;;;;;5132912;27;20191;-68
2023/11/16 12:45:13;;;;;;;3.33;1.30;;;17.30;68.10;;;;;;5133263;27;20172;-67
2023/11/16 12:47:39;;;;;;;1.65;0.90;;;17.60;67.50;;;;;;5133305;27;20168;-68